sensor_id;sensor_type;location;lat;lon;timestamp;temperature;humidity
24560;DHT22;12727;49.934;8.656;2023-03-14T00:01:15;10.50;99.90
24560;DHT22;12727;49.934;8.656;2023-03-14T00:03:41;10.50;99.90
24560;DHT22;12727;49.934;8.656;2023-03-14T00:06:07;10.50;99.90
24560;DHT22;12727;49.934;8.656;2023-03-14T00:08:33;10.50;99.90
24560;DHT22;12727;49.934;8.656;2023-03-14T00:11:04;10.50;99.90
24560;DHT22;12727;49.934;8.656;2023-03-14T00:13:30;10.50;99.90
24560;DHT22;12727;49.934;8.656;2023-03-14T00:16:11;10.50;99.90
24560;DHT22;12727;49.934;8.656;2023-03-14T00:18:38;10.50;99.90
24560;DHT22;12727;49.934;8.656;2023-03-14T00:21:04;10.50;99.90
24560;DHT22;12727;49.934;8.656;2023-03-14T00:23:32;10.40;99.90
24560;DHT22;12727;49.934;8.656;2023-03-14T00:25:59;10.50;99.90
24560;DHT22;12727;49.934;8.656;2023-03-14T00:28:25;10.40;99.90
24560;DHT22;12727;49.934;8.656;2023-03-14T00:30:51;10.50;99.90
24560;DHT22;12727;49.934;8.656;2023-03-14T00:33:16;10.50;99.90
24560;DHT22;12727;49.934;8.656;2023-03-14T00:35:42;10.40;99.90
24560;DHT22;12727;49.934;8.656;2023-03-14T00:38:07;10.40;99.90
24560;DHT22;12727;49.934;8.656;2023-03-14T00:40:33;10.60;99.90
24560;DHT22;12727;49.934;8.656;2023-03-14T00:42:59;10.50;99.90
24560;DHT22;12727;49.934;8.656;2023-03-14T00:45:24;10.50;99.90
24560;DHT22;12727;49.934;8.656;2023-03-14T00:47:50;10.50;99.90
24560;DHT22;12727;49.934;8.656;2023-03-14T00:50:15;10.50;99.90
24560;DHT22;12727;49.934;8.656;2023-03-14T00:52:41;10.50;99.90
24560;DHT22;12727;49.934;8.656;2023-03-14T00:55:06;10.50;99.90
24560;DHT22;12727;49.934;8.656;2023-03-14T00:57:32;10.50;99.90
24560;DHT22;12727;49.934;8.656;2023-03-14T00:59:58;10.50;99.90
24560;DHT22;12727;49.934;8.656;2023-03-14T01:02:23;10.40;99.90
24560;DHT22;12727;49.934;8.656;2023-03-14T01:04:49;10.40;99.90
24560;DHT22;12727;49.934;8.656;2023-03-14T01:07:15;10.40;99.90
24560;DHT22;12727;49.934;8.656;2023-03-14T01:09:41;10.40;99.90
24560;DHT22;12727;49.934;8.656;2023-03-14T01:12:06;10.40;99.90
24560;DHT22;12727;49.934;8.656;2023-03-14T01:14:32;10.40;99.90
24560;DHT22;12727;49.934;8.656;2023-03-14T01:16:57;10.40;99.90
24560;DHT22;12727;49.934;8.656;2023-03-14T01:19:27;10.40;99.90
24560;DHT22;12727;49.934;8.656;2023-03-14T01:21:53;10.40;99.90
24560;DHT22;12727;49.934;8.656;2023-03-14T01:24:18;10.40;99.90
24560;DHT22;12727;49.934;8.656;2023-03-14T01:26:44;10.40;99.90
24560;DHT22;12727;49.934;8.656;2023-03-14T01:29:10;10.50;99.90
24560;DHT22;12727;49.934;8.656;2023-03-14T01:31:35;10.50;99.90
24560;DHT22;12727;49.934;8.656;2023-03-14T01:34:01;10.50;99.90
24560;DHT22;12727;49.934;8.656;2023-03-14T01:36:26;10.50;99.90
24560;DHT22;12727;49.934;8.656;2023-03-14T01:38:52;10.40;99.90
24560;DHT22;12727;49.934;8.656;2023-03-14T01:41:23;10.40;99.90
24560;DHT22;12727;49.934;8.656;2023-03-14T01:43:49;10.40;99.90
24560;DHT22;12727;49.934;8.656;2023-03-14T01:51:59;10.50;99.90
24560;DHT22;12727;49.934;8.656;2023-03-14T01:54:31;10.50;99.90
24560;DHT22;12727;49.934;8.656;2023-03-14T01:57:08;10.50;99.90
24560;DHT22;12727;49.934;8.656;2023-03-14T01:59:37;10.50;99.90
24560;DHT22;12727;49.934;8.656;2023-03-14T02:02:04;10.50;99.90
24560;DHT22;12727;49.934;8.656;2023-03-14T02:04:34;10.50;99.90
24560;DHT22;12727;49.934;8.656;2023-03-14T02:07:13;10.50;99.90
24560;DHT22;12727;49.934;8.656;2023-03-14T02:09:41;10.60;99.90
24560;DHT22;12727;49.934;8.656;2023-03-14T02:12:09;10.50;99.90
24560;DHT22;12727;49.934;8.656;2023-03-14T02:14:36;10.50;99.90
24560;DHT22;12727;49.934;8.656;2023-03-14T02:17:04;10.50;99.90
24560;DHT22;12727;49.934;8.656;2023-03-14T02:19:44;10.60;99.90
24560;DHT22;12727;49.934;8.656;2023-03-14T02:22:13;10.60;99.90
24560;DHT22;12727;49.934;8.656;2023-03-14T02:24:50;10.70;99.90
24560;DHT22;12727;49.934;8.656;2023-03-14T02:27:20;10.70;99.90
24560;DHT22;12727;49.934;8.656;2023-03-14T02:29:52;10.70;99.90
24560;DHT22;12727;49.934;8.656;2023-03-14T02:32:19;10.70;99.90
24560;DHT22;12727;49.934;8.656;2023-03-14T02:34:49;10.70;99.90
24560;DHT22;12727;49.934;8.656;2023-03-14T02:37:16;10.70;99.90
24560;DHT22;12727;49.934;8.656;2023-03-14T02:39:45;10.70;99.90
24560;DHT22;12727;49.934;8.656;2023-03-14T02:42:12;10.70;99.90
24560;DHT22;12727;49.934;8.656;2023-03-14T02:44:50;10.70;99.90
24560;DHT22;12727;49.934;8.656;2023-03-14T02:47:16;10.70;99.90
24560;DHT22;12727;49.934;8.656;2023-03-14T02:49:43;10.70;99.90
24560;DHT22;12727;49.934;8.656;2023-03-14T02:52:08;10.70;99.90
24560;DHT22;12727;49.934;8.656;2023-03-14T02:54:34;10.70;99.90
24560;DHT22;12727;49.934;8.656;2023-03-14T02:57:00;10.70;99.90
24560;DHT22;12727;49.934;8.656;2023-03-14T02:59:25;10.70;99.90
24560;DHT22;12727;49.934;8.656;2023-03-14T03:01:51;10.60;99.90
24560;DHT22;12727;49.934;8.656;2023-03-14T03:04:16;10.50;99.90
24560;DHT22;12727;49.934;8.656;2023-03-14T03:06:42;10.50;99.90
24560;DHT22;12727;49.934;8.656;2023-03-14T03:09:08;10.60;99.90
24560;DHT22;12727;49.934;8.656;2023-03-14T03:11:33;10.60;99.90
24560;DHT22;12727;49.934;8.656;2023-03-14T03:13:59;10.60;99.90
24560;DHT22;12727;49.934;8.656;2023-03-14T03:16:24;10.60;99.90
24560;DHT22;12727;49.934;8.656;2023-03-14T03:18:50;10.60;99.90
24560;DHT22;12727;49.934;8.656;2023-03-14T03:21:15;10.70;99.90
24560;DHT22;12727;49.934;8.656;2023-03-14T03:23:41;10.70;99.90
24560;DHT22;12727;49.934;8.656;2023-03-14T03:26:09;10.70;99.90
24560;DHT22;12727;49.934;8.656;2023-03-14T03:28:35;10.70;99.90
24560;DHT22;12727;49.934;8.656;2023-03-14T03:31:07;10.70;99.90
24560;DHT22;12727;49.934;8.656;2023-03-14T03:33:33;10.70;99.90
24560;DHT22;12727;49.934;8.656;2023-03-14T03:35:58;10.80;99.90
24560;DHT22;12727;49.934;8.656;2023-03-14T03:38:24;10.80;99.90
24560;DHT22;12727;49.934;8.656;2023-03-14T03:40:49;10.80;99.90
24560;DHT22;12727;49.934;8.656;2023-03-14T03:43:15;10.80;99.90
24560;DHT22;12727;49.934;8.656;2023-03-14T03:45:40;10.80;99.90
24560;DHT22;12727;49.934;8.656;2023-03-14T03:48:06;10.70;99.90
24560;DHT22;12727;49.934;8.656;2023-03-14T03:50:32;10.70;99.90
24560;DHT22;12727;49.934;8.656;2023-03-14T03:52:57;10.60;99.90
24560;DHT22;12727;49.934;8.656;2023-03-14T03:55:23;10.60;99.90
24560;DHT22;12727;49.934;8.656;2023-03-14T03:57:48;10.60;99.90
24560;DHT22;12727;49.934;8.656;2023-03-14T04:00:14;10.60;99.90
24560;DHT22;12727;49.934;8.656;2023-03-14T04:02:40;10.60;99.90
24560;DHT22;12727;49.934;8.656;2023-03-14T04:05:05;10.70;99.90
24560;DHT22;12727;49.934;8.656;2023-03-14T04:07:32;10.70;99.90
24560;DHT22;12727;49.934;8.656;2023-03-14T04:09:58;10.60;99.90
24560;DHT22;12727;49.934;8.656;2023-03-14T04:12:23;10.60;99.90
24560;DHT22;12727;49.934;8.656;2023-03-14T04:14:49;10.70;99.90
24560;DHT22;12727;49.934;8.656;2023-03-14T04:17:14;10.70;99.90
24560;DHT22;12727;49.934;8.656;2023-03-14T04:19:40;10.70;99.90
24560;DHT22;12727;49.934;8.656;2023-03-14T04:22:06;10.70;99.90
24560;DHT22;12727;49.934;8.656;2023-03-14T04:24:31;10.80;99.90
24560;DHT22;12727;49.934;8.656;2023-03-14T04:26:57;10.80;99.90
24560;DHT22;12727;49.934;8.656;2023-03-14T04:29:22;10.80;99.90
24560;DHT22;12727;49.934;8.656;2023-03-14T04:31:48;10.80;99.90
24560;DHT22;12727;49.934;8.656;2023-03-14T04:34:13;10.70;99.90
24560;DHT22;12727;49.934;8.656;2023-03-14T04:36:39;10.70;99.90
24560;DHT22;12727;49.934;8.656;2023-03-14T04:39:04;10.70;99.90
24560;DHT22;12727;49.934;8.656;2023-03-14T04:41:30;10.70;99.90
24560;DHT22;12727;49.934;8.656;2023-03-14T04:43:56;10.70;99.90
24560;DHT22;12727;49.934;8.656;2023-03-14T04:46:21;10.80;99.90
24560;DHT22;12727;49.934;8.656;2023-03-14T04:48:47;10.80;99.90
24560;DHT22;12727;49.934;8.656;2023-03-14T04:51:12;10.80;99.90
24560;DHT22;12727;49.934;8.656;2023-03-14T04:53:38;10.80;99.90
24560;DHT22;12727;49.934;8.656;2023-03-14T04:56:04;10.80;99.90
24560;DHT22;12727;49.934;8.656;2023-03-14T04:58:29;10.80;99.90
24560;DHT22;12727;49.934;8.656;2023-03-14T05:00:55;10.70;99.90
24560;DHT22;12727;49.934;8.656;2023-03-14T05:03:21;10.70;99.90
24560;DHT22;12727;49.934;8.656;2023-03-14T05:05:47;10.70;99.90
24560;DHT22;12727;49.934;8.656;2023-03-14T05:08:12;10.70;99.90
24560;DHT22;12727;49.934;8.656;2023-03-14T05:10:38;10.70;99.90
24560;DHT22;12727;49.934;8.656;2023-03-14T05:13:04;10.60;99.90
24560;DHT22;12727;49.934;8.656;2023-03-14T05:15:29;10.60;99.90
24560;DHT22;12727;49.934;8.656;2023-03-14T05:17:55;10.60;99.90
24560;DHT22;12727;49.934;8.656;2023-03-14T05:20:21;10.50;99.90
24560;DHT22;12727;49.934;8.656;2023-03-14T05:22:46;10.50;99.90
24560;DHT22;12727;49.934;8.656;2023-03-14T05:25:12;10.40;99.90
24560;DHT22;12727;49.934;8.656;2023-03-14T05:27:38;10.40;99.90
24560;DHT22;12727;49.934;8.656;2023-03-14T05:30:05;10.50;99.90
24560;DHT22;12727;49.934;8.656;2023-03-14T05:32:31;10.40;99.90
24560;DHT22;12727;49.934;8.656;2023-03-14T05:34:56;10.50;99.90
24560;DHT22;12727;49.934;8.656;2023-03-14T05:37:25;10.50;99.90
24560;DHT22;12727;49.934;8.656;2023-03-14T05:39:50;10.50;99.90
24560;DHT22;12727;49.934;8.656;2023-03-14T05:42:16;10.40;99.90
24560;DHT22;12727;49.934;8.656;2023-03-14T05:44:42;10.40;99.90
24560;DHT22;12727;49.934;8.656;2023-03-14T05:47:07;10.40;99.90
24560;DHT22;12727;49.934;8.656;2023-03-14T05:49:33;10.40;99.90
24560;DHT22;12727;49.934;8.656;2023-03-14T05:51:58;10.50;99.90
24560;DHT22;12727;49.934;8.656;2023-03-14T05:54:24;10.50;99.90
24560;DHT22;12727;49.934;8.656;2023-03-14T05:56:49;10.50;99.90
24560;DHT22;12727;49.934;8.656;2023-03-14T05:59:15;10.50;99.90
24560;DHT22;12727;49.934;8.656;2023-03-14T06:01:41;10.40;99.90
24560;DHT22;12727;49.934;8.656;2023-03-14T06:04:06;10.30;99.90
24560;DHT22;12727;49.934;8.656;2023-03-14T06:06:32;10.30;99.90
24560;DHT22;12727;49.934;8.656;2023-03-14T06:08:57;10.30;99.90
24560;DHT22;12727;49.934;8.656;2023-03-14T06:11:23;10.30;99.90
24560;DHT22;12727;49.934;8.656;2023-03-14T06:13:48;10.20;99.90
24560;DHT22;12727;49.934;8.656;2023-03-14T06:16:14;10.30;99.90
24560;DHT22;12727;49.934;8.656;2023-03-14T06:18:39;10.30;99.90
24560;DHT22;12727;49.934;8.656;2023-03-14T06:21:05;10.30;99.90
24560;DHT22;12727;49.934;8.656;2023-03-14T06:23:31;10.40;99.90
24560;DHT22;12727;49.934;8.656;2023-03-14T06:25:57;10.40;99.90
24560;DHT22;12727;49.934;8.656;2023-03-14T06:28:22;10.40;99.90
24560;DHT22;12727;49.934;8.656;2023-03-14T06:30:48;10.50;99.90
24560;DHT22;12727;49.934;8.656;2023-03-14T06:33:13;10.50;99.90
24560;DHT22;12727;49.934;8.656;2023-03-14T06:35:39;10.50;99.90
24560;DHT22;12727;49.934;8.656;2023-03-14T06:38:04;10.60;99.90
24560;DHT22;12727;49.934;8.656;2023-03-14T06:40:30;10.60;99.90
24560;DHT22;12727;49.934;8.656;2023-03-14T06:42:56;10.60;99.90
24560;DHT22;12727;49.934;8.656;2023-03-14T06:45:21;10.50;99.90
24560;DHT22;12727;49.934;8.656;2023-03-14T06:47:47;10.50;99.90
24560;DHT22;12727;49.934;8.656;2023-03-14T06:50:12;10.50;99.90
24560;DHT22;12727;49.934;8.656;2023-03-14T06:52:38;10.50;99.90
24560;DHT22;12727;49.934;8.656;2023-03-14T06:55:08;10.50;99.90
24560;DHT22;12727;49.934;8.656;2023-03-14T06:57:34;10.50;99.90
24560;DHT22;12727;49.934;8.656;2023-03-14T06:59:59;10.50;99.90
24560;DHT22;12727;49.934;8.656;2023-03-14T07:02:25;10.60;99.90
24560;DHT22;12727;49.934;8.656;2023-03-14T07:04:50;10.60;99.90
24560;DHT22;12727;49.934;8.656;2023-03-14T07:07:16;10.60;99.90
24560;DHT22;12727;49.934;8.656;2023-03-14T07:09:41;10.60;99.90
24560;DHT22;12727;49.934;8.656;2023-03-14T07:12:07;10.60;99.90
24560;DHT22;12727;49.934;8.656;2023-03-14T07:14:33;10.60;99.90
24560;DHT22;12727;49.934;8.656;2023-03-14T07:16:58;10.60;99.90
24560;DHT22;12727;49.934;8.656;2023-03-14T07:19:24;10.70;99.90
24560;DHT22;12727;49.934;8.656;2023-03-14T07:21:49;10.70;99.90
24560;DHT22;12727;49.934;8.656;2023-03-14T07:24:15;10.70;99.90
24560;DHT22;12727;49.934;8.656;2023-03-14T07:26:40;10.80;99.90
24560;DHT22;12727;49.934;8.656;2023-03-14T07:29:06;10.80;99.90
24560;DHT22;12727;49.934;8.656;2023-03-14T07:31:32;10.80;99.90
24560;DHT22;12727;49.934;8.656;2023-03-14T07:33:57;10.90;99.90
24560;DHT22;12727;49.934;8.656;2023-03-14T07:36:23;10.90;99.90
24560;DHT22;12727;49.934;8.656;2023-03-14T07:38:49;10.90;99.90
24560;DHT22;12727;49.934;8.656;2023-03-14T07:41:14;11.00;99.90
24560;DHT22;12727;49.934;8.656;2023-03-14T07:43:40;11.00;99.90
24560;DHT22;12727;49.934;8.656;2023-03-14T07:46:06;11.00;99.90
24560;DHT22;12727;49.934;8.656;2023-03-14T07:48:31;11.00;99.90
24560;DHT22;12727;49.934;8.656;2023-03-14T07:50:57;11.10;99.90
24560;DHT22;12727;49.934;8.656;2023-03-14T07:53:24;11.10;99.90
24560;DHT22;12727;49.934;8.656;2023-03-14T07:55:51;11.10;99.90
24560;DHT22;12727;49.934;8.656;2023-03-14T07:58:17;11.10;99.90
24560;DHT22;12727;49.934;8.656;2023-03-14T08:00:43;11.20;99.90
24560;DHT22;12727;49.934;8.656;2023-03-14T08:03:08;11.20;99.90
24560;DHT22;12727;49.934;8.656;2023-03-14T08:05:36;11.30;99.90
24560;DHT22;12727;49.934;8.656;2023-03-14T08:08:02;11.40;99.90
24560;DHT22;12727;49.934;8.656;2023-03-14T08:10:27;11.30;99.90
24560;DHT22;12727;49.934;8.656;2023-03-14T08:12:55;11.30;99.90
24560;DHT22;12727;49.934;8.656;2023-03-14T08:15:21;11.20;99.90
24560;DHT22;12727;49.934;8.656;2023-03-14T08:17:47;11.20;99.90
24560;DHT22;12727;49.934;8.656;2023-03-14T08:20:17;11.10;99.90
24560;DHT22;12727;49.934;8.656;2023-03-14T08:22:43;11.20;99.90
24560;DHT22;12727;49.934;8.656;2023-03-14T08:25:08;11.30;99.90
24560;DHT22;12727;49.934;8.656;2023-03-14T08:27:34;11.30;99.90
24560;DHT22;12727;49.934;8.656;2023-03-14T08:30:03;11.50;99.90
24560;DHT22;12727;49.934;8.656;2023-03-14T08:32:29;11.60;99.90
24560;DHT22;12727;49.934;8.656;2023-03-14T08:34:55;11.60;99.90
24560;DHT22;12727;49.934;8.656;2023-03-14T08:37:22;11.50;99.90
24560;DHT22;12727;49.934;8.656;2023-03-14T08:39:49;11.50;99.90
24560;DHT22;12727;49.934;8.656;2023-03-14T08:42:15;11.40;99.90
24560;DHT22;12727;49.934;8.656;2023-03-14T08:44:40;11.50;99.90
24560;DHT22;12727;49.934;8.656;2023-03-14T08:47:06;11.60;99.90
24560;DHT22;12727;49.934;8.656;2023-03-14T08:49:32;11.70;99.90
24560;DHT22;12727;49.934;8.656;2023-03-14T08:51:58;11.70;99.90
24560;DHT22;12727;49.934;8.656;2023-03-14T08:54:24;11.80;99.90
24560;DHT22;12727;49.934;8.656;2023-03-14T08:56:49;11.90;99.90
24560;DHT22;12727;49.934;8.656;2023-03-14T08:59:15;12.70;99.90
24560;DHT22;12727;49.934;8.656;2023-03-14T09:01:40;12.90;99.90
24560;DHT22;12727;49.934;8.656;2023-03-14T09:04:06;12.70;99.90
24560;DHT22;12727;49.934;8.656;2023-03-14T09:06:32;12.50;99.90
24560;DHT22;12727;49.934;8.656;2023-03-14T09:08:57;12.40;99.90
24560;DHT22;12727;49.934;8.656;2023-03-14T09:11:23;12.50;99.90
24560;DHT22;12727;49.934;8.656;2023-03-14T09:13:49;12.60;99.90
24560;DHT22;12727;49.934;8.656;2023-03-14T09:16:14;13.50;99.90
24560;DHT22;12727;49.934;8.656;2023-03-14T09:18:40;13.30;99.90
24560;DHT22;12727;49.934;8.656;2023-03-14T09:21:06;13.20;99.90
24560;DHT22;12727;49.934;8.656;2023-03-14T09:23:31;13.20;99.90
24560;DHT22;12727;49.934;8.656;2023-03-14T09:25:58;13.20;99.90
24560;DHT22;12727;49.934;8.656;2023-03-14T09:28:24;12.90;99.90
24560;DHT22;12727;49.934;8.656;2023-03-14T09:30:50;12.90;99.90
24560;DHT22;12727;49.934;8.656;2023-03-14T09:33:17;12.80;99.90
24560;DHT22;12727;49.934;8.656;2023-03-14T09:35:42;12.70;99.90
24560;DHT22;12727;49.934;8.656;2023-03-14T09:38:08;12.70;99.90
24560;DHT22;12727;49.934;8.656;2023-03-14T09:40:35;12.70;99.90
24560;DHT22;12727;49.934;8.656;2023-03-14T09:43:01;13.00;99.90
24560;DHT22;12727;49.934;8.656;2023-03-14T09:45:36;13.00;99.90
24560;DHT22;12727;49.934;8.656;2023-03-14T09:48:03;13.10;99.90
24560;DHT22;12727;49.934;8.656;2023-03-14T09:50:43;12.80;99.90
24560;DHT22;12727;49.934;8.656;2023-03-14T09:53:13;12.80;99.90
24560;DHT22;12727;49.934;8.656;2023-03-14T09:55:39;12.70;99.90
24560;DHT22;12727;49.934;8.656;2023-03-14T09:58:12;12.80;99.90
24560;DHT22;12727;49.934;8.656;2023-03-14T10:00:38;12.80;99.90
24560;DHT22;12727;49.934;8.656;2023-03-14T10:03:20;12.50;99.90
24560;DHT22;12727;49.934;8.656;2023-03-14T10:05:46;12.40;99.90
24560;DHT22;12727;49.934;8.656;2023-03-14T10:08:13;12.30;99.90
24560;DHT22;12727;49.934;8.656;2023-03-14T10:10:39;12.20;99.90
24560;DHT22;12727;49.934;8.656;2023-03-14T10:13:18;12.10;99.90
24560;DHT22;12727;49.934;8.656;2023-03-14T10:15:51;12.00;99.90
24560;DHT22;12727;49.934;8.656;2023-03-14T10:18:17;11.90;99.90
24560;DHT22;12727;49.934;8.656;2023-03-14T10:20:45;12.00;99.90
24560;DHT22;12727;49.934;8.656;2023-03-14T10:25:42;11.90;99.90
24560;DHT22;12727;49.934;8.656;2023-03-14T10:28:27;12.00;99.90
24560;DHT22;12727;49.934;8.656;2023-03-14T10:30:54;12.00;99.90
24560;DHT22;12727;49.934;8.656;2023-03-14T10:33:25;12.00;99.90
24560;DHT22;12727;49.934;8.656;2023-03-14T10:36:00;12.00;99.90
24560;DHT22;12727;49.934;8.656;2023-03-14T10:38:31;11.90;99.90
24560;DHT22;12727;49.934;8.656;2023-03-14T10:40:57;11.90;99.90
24560;DHT22;12727;49.934;8.656;2023-03-14T10:43:33;11.80;99.90
24560;DHT22;12727;49.934;8.656;2023-03-14T10:46:14;11.80;99.90
24560;DHT22;12727;49.934;8.656;2023-03-14T10:48:40;11.90;99.90
24560;DHT22;12727;49.934;8.656;2023-03-14T10:51:19;11.80;99.90
24560;DHT22;12727;49.934;8.656;2023-03-14T10:53:55;11.70;99.90
24560;DHT22;12727;49.934;8.656;2023-03-14T10:56:22;11.70;99.90
24560;DHT22;12727;49.934;8.656;2023-03-14T10:58:50;11.60;99.90
24560;DHT22;12727;49.934;8.656;2023-03-14T11:01:44;11.60;99.90
24560;DHT22;12727;49.934;8.656;2023-03-14T11:07:13;11.60;99.90
24560;DHT22;12727;49.934;8.656;2023-03-14T11:10:01;11.50;99.90
24560;DHT22;12727;49.934;8.656;2023-03-14T11:21:11;11.60;99.90
24560;DHT22;12727;49.934;8.656;2023-03-14T11:24:00;11.50;99.90
24560;DHT22;12727;49.934;8.656;2023-03-14T11:26:42;11.50;99.90
24560;DHT22;12727;49.934;8.656;2023-03-14T11:31:46;11.40;99.90
24560;DHT22;12727;49.934;8.656;2023-03-14T11:34:28;11.30;99.90
24560;DHT22;12727;49.934;8.656;2023-03-14T11:37:06;11.30;99.90
24560;DHT22;12727;49.934;8.656;2023-03-14T11:39:39;11.30;99.90
24560;DHT22;12727;49.934;8.656;2023-03-14T11:42:12;11.30;99.90
24560;DHT22;12727;49.934;8.656;2023-03-14T11:44:40;11.30;99.90
24560;DHT22;12727;49.934;8.656;2023-03-14T11:47:21;11.30;99.90
24560;DHT22;12727;49.934;8.656;2023-03-14T11:50:17;11.30;99.90
24560;DHT22;12727;49.934;8.656;2023-03-14T11:52:50;11.40;99.90
24560;DHT22;12727;49.934;8.656;2023-03-14T11:55:34;11.50;99.90
24560;DHT22;12727;49.934;8.656;2023-03-14T12:00:38;11.60;99.90
24560;DHT22;12727;49.934;8.656;2023-03-14T12:03:39;11.60;99.90
24560;DHT22;12727;49.934;8.656;2023-03-14T12:06:20;11.60;99.90
24560;DHT22;12727;49.934;8.656;2023-03-14T12:08:55;11.40;99.90
24560;DHT22;12727;49.934;8.656;2023-03-14T12:11:47;11.00;99.90
24560;DHT22;12727;49.934;8.656;2023-03-14T12:14:29;10.80;99.90
24560;DHT22;12727;49.934;8.656;2023-03-14T12:17:07;10.80;99.90
24560;DHT22;12727;49.934;8.656;2023-03-14T12:19:43;10.90;99.90
24560;DHT22;12727;49.934;8.656;2023-03-14T12:22:29;11.00;99.90
24560;DHT22;12727;49.934;8.656;2023-03-14T12:32:42;9.90;99.90
24560;DHT22;12727;49.934;8.656;2023-03-14T12:35:37;9.90;99.90
24560;DHT22;12727;49.934;8.656;2023-03-14T12:38:06;10.00;99.90
24560;DHT22;12727;49.934;8.656;2023-03-14T12:40:39;10.20;99.90
24560;DHT22;12727;49.934;8.656;2023-03-14T12:43:25;10.30;99.90
24560;DHT22;12727;49.934;8.656;2023-03-14T12:46:15;10.50;99.90
24560;DHT22;12727;49.934;8.656;2023-03-14T12:48:46;10.70;99.90
24560;DHT22;12727;49.934;8.656;2023-03-14T12:51:29;10.80;99.90
24560;DHT22;12727;49.934;8.656;2023-03-14T12:54:34;10.90;99.90
24560;DHT22;12727;49.934;8.656;2023-03-14T12:57:14;10.90;99.90
24560;DHT22;12727;49.934;8.656;2023-03-14T13:00:00;10.90;99.90
24560;DHT22;12727;49.934;8.656;2023-03-14T13:02:38;11.10;99.90
24560;DHT22;12727;49.934;8.656;2023-03-14T13:05:14;11.10;99.90
24560;DHT22;12727;49.934;8.656;2023-03-14T13:10:26;11.10;99.90
24560;DHT22;12727;49.934;8.656;2023-03-14T13:15:30;11.10;99.90
24560;DHT22;12727;49.934;8.656;2023-03-14T13:18:15;11.10;99.90
24560;DHT22;12727;49.934;8.656;2023-03-14T13:20:45;10.80;99.90
24560;DHT22;12727;49.934;8.656;2023-03-14T13:23:28;10.50;99.90
24560;DHT22;12727;49.934;8.656;2023-03-14T13:25:55;10.30;99.90
24560;DHT22;12727;49.934;8.656;2023-03-14T13:28:21;10.20;99.90
24560;DHT22;12727;49.934;8.656;2023-03-14T13:30:58;10.30;99.90
24560;DHT22;12727;49.934;8.656;2023-03-14T13:33:24;10.30;99.90
24560;DHT22;12727;49.934;8.656;2023-03-14T13:35:59;10.10;99.90
24560;DHT22;12727;49.934;8.656;2023-03-14T13:38:27;10.00;99.90
24560;DHT22;12727;49.934;8.656;2023-03-14T13:40:57;9.90;99.90
24560;DHT22;12727;49.934;8.656;2023-03-14T13:43:33;9.80;99.90
24560;DHT22;12727;49.934;8.656;2023-03-14T13:46:14;9.80;99.90
24560;DHT22;12727;49.934;8.656;2023-03-14T13:48:44;9.40;99.90
24560;DHT22;12727;49.934;8.656;2023-03-14T13:51:13;9.30;99.90
24560;DHT22;12727;49.934;8.656;2023-03-14T13:53:50;9.30;99.90
24560;DHT22;12727;49.934;8.656;2023-03-14T13:56:19;9.20;99.90
24560;DHT22;12727;49.934;8.656;2023-03-14T13:58:45;9.30;99.90
24560;DHT22;12727;49.934;8.656;2023-03-14T14:01:26;9.30;99.90
24560;DHT22;12727;49.934;8.656;2023-03-14T14:03:55;9.40;99.90
24560;DHT22;12727;49.934;8.656;2023-03-14T14:06:35;9.50;99.90
24560;DHT22;12727;49.934;8.656;2023-03-14T14:09:20;9.50;99.90
24560;DHT22;12727;49.934;8.656;2023-03-14T14:11:53;9.60;99.90
24560;DHT22;12727;49.934;8.656;2023-03-14T14:14:35;9.70;99.90
24560;DHT22;12727;49.934;8.656;2023-03-14T14:17:06;9.80;99.90
24560;DHT22;12727;49.934;8.656;2023-03-14T14:19:34;9.80;99.90
24560;DHT22;12727;49.934;8.656;2023-03-14T14:22:00;10.00;99.90
24560;DHT22;12727;49.934;8.656;2023-03-14T14:24:30;10.20;99.90
24560;DHT22;12727;49.934;8.656;2023-03-14T14:27:08;10.20;99.90
24560;DHT22;12727;49.934;8.656;2023-03-14T14:29:34;10.30;99.90
24560;DHT22;12727;49.934;8.656;2023-03-14T14:32:10;10.20;99.90
24560;DHT22;12727;49.934;8.656;2023-03-14T14:34:40;10.30;99.90
24560;DHT22;12727;49.934;8.656;2023-03-14T14:37:28;10.30;99.90
24560;DHT22;12727;49.934;8.656;2023-03-14T14:40:01;10.20;99.90
24560;DHT22;12727;49.934;8.656;2023-03-14T14:42:31;10.10;99.90
24560;DHT22;12727;49.934;8.656;2023-03-14T14:44:58;10.00;99.90
24560;DHT22;12727;49.934;8.656;2023-03-14T14:47:26;9.90;99.90
24560;DHT22;12727;49.934;8.656;2023-03-14T14:49:54;9.90;99.90
24560;DHT22;12727;49.934;8.656;2023-03-14T14:52:30;9.70;99.90
24560;DHT22;12727;49.934;8.656;2023-03-14T14:55:00;9.50;99.90
24560;DHT22;12727;49.934;8.656;2023-03-14T14:57:38;9.50;99.90
24560;DHT22;12727;49.934;8.656;2023-03-14T15:00:07;9.40;99.90
24560;DHT22;12727;49.934;8.656;2023-03-14T15:02:40;9.30;99.90
24560;DHT22;12727;49.934;8.656;2023-03-14T15:05:21;9.20;99.90
24560;DHT22;12727;49.934;8.656;2023-03-14T15:07:47;9.20;99.90
24560;DHT22;12727;49.934;8.656;2023-03-14T15:10:18;9.10;99.90
24560;DHT22;12727;49.934;8.656;2023-03-14T15:12:43;8.60;99.90
24560;DHT22;12727;49.934;8.656;2023-03-14T15:15:10;8.20;99.90
24560;DHT22;12727;49.934;8.656;2023-03-14T15:17:37;7.90;99.90
24560;DHT22;12727;49.934;8.656;2023-03-14T15:20:04;7.70;99.90
24560;DHT22;12727;49.934;8.656;2023-03-14T15:22:31;7.50;99.90
24560;DHT22;12727;49.934;8.656;2023-03-14T15:24:56;7.50;99.90
24560;DHT22;12727;49.934;8.656;2023-03-14T15:27:22;7.50;99.90
24560;DHT22;12727;49.934;8.656;2023-03-14T15:29:48;7.50;99.90
24560;DHT22;12727;49.934;8.656;2023-03-14T15:32:16;7.40;99.90
24560;DHT22;12727;49.934;8.656;2023-03-14T15:34:42;7.30;99.90
24560;DHT22;12727;49.934;8.656;2023-03-14T15:37:12;7.30;99.90
24560;DHT22;12727;49.934;8.656;2023-03-14T15:39:39;7.30;99.90
24560;DHT22;12727;49.934;8.656;2023-03-14T15:42:05;7.30;99.90
24560;DHT22;12727;49.934;8.656;2023-03-14T15:44:31;7.40;99.90
24560;DHT22;12727;49.934;8.656;2023-03-14T15:46:57;7.40;99.90
24560;DHT22;12727;49.934;8.656;2023-03-14T15:49:22;7.60;99.90
24560;DHT22;12727;49.934;8.656;2023-03-14T15:51:48;7.50;99.90
24560;DHT22;12727;49.934;8.656;2023-03-14T15:54:14;7.50;99.90
24560;DHT22;12727;49.934;8.656;2023-03-14T15:56:39;7.70;99.90
24560;DHT22;12727;49.934;8.656;2023-03-14T15:59:05;7.90;99.90
24560;DHT22;12727;49.934;8.656;2023-03-14T16:01:30;8.00;99.90
24560;DHT22;12727;49.934;8.656;2023-03-14T16:03:56;8.10;99.90
24560;DHT22;12727;49.934;8.656;2023-03-14T16:06:22;8.10;99.90
24560;DHT22;12727;49.934;8.656;2023-03-14T16:08:47;8.00;99.90
24560;DHT22;12727;49.934;8.656;2023-03-14T16:11:14;7.90;99.90
24560;DHT22;12727;49.934;8.656;2023-03-14T16:13:40;7.80;99.90
24560;DHT22;12727;49.934;8.656;2023-03-14T16:16:07;7.80;99.90
24560;DHT22;12727;49.934;8.656;2023-03-14T16:18:34;7.70;99.90
24560;DHT22;12727;49.934;8.656;2023-03-14T16:21:03;7.50;99.90